Time;durP1;ratioP1;P1;durP2;ratioP2;P2;SDS_P1;SDS_P2;PMS_P1;PMS_P2;Temp;Humidity;BMP_temperature;BMP_pressure;BME280_temperature;BME280_humidity;BME280_pressure;Samples;Min_cycle;Max_cycle;Signal;HPM_P1;HPM_P2
2022/10/12 00:52:45;;;;;;;8.15;3.78;;;;;;;4.75;100.00;67304.13;4955556;28;19942;-76
2022/10/12 00:55:16;;;;;;;8.93;3.80;;;;;;;4.74;100.00;67305.06;4916885;28;20130;-77
2022/10/12 00:57:42;;;;;;;5.57;3.95;;;;;;;4.74;100.00;67307.72;4948892;28;20055;-79
2022/10/12 01:00:09;;;;;;;8.93;4.95;;;;;;;4.76;100.00;67309.97;4949137;28;20047;-75
2022/10/12 01:02:37;;;;;;;11.90;3.80;;;;;;;4.75;100.00;67306.22;4932263;29;20043;-79
2022/10/12 01:05:03;;;;;;;9.55;4.13;;;;;;;4.74;100.00;67302.44;4930506;29;20071;-80
2022/10/12 01:07:29;;;;;;;7.47;4.07;;;;;;;4.74;100.00;67305.63;4930439;29;20123;-79
2022/10/12 01:09:54;;;;;;;9.25;4.32;;;;;;;4.73;100.00;67301.31;4931572;29;20044;-77
2022/10/12 01:12:21;;;;;;;8.95;4.40;;;;;;;4.71;100.00;67302.25;4930803;29;20051;-76
2022/10/12 01:14:46;;;;;;;11.93;4.85;;;;;;;4.70;100.00;67301.13;4929684;29;20048;-79
2022/10/12 01:17:48;;;;;;;10.48;4.30;;;;;;;4.69;100.00;67302.63;4930960;29;20076;-77
2022/10/12 01:20:43;;;;;;;7.90;4.35;;;;;;;4.66;100.00;67296.03;4908394;29;20059;-76
2022/10/12 01:23:24;;;;;;;15.30;4.40;;;;;;;4.64;100.00;67297.00;4911447;29;20055;-79
2022/10/12 01:25:49;;;;;;;7.43;4.40;;;;;;;;;;4926223;29;20063;-77
2022/10/12 01:28:42;;;;;;;12.23;4.10;;;;;;;4.62;100.00;67289.44;4929568;29;20419;-78
2022/10/12 01:31:33;;;;;;;8.95;4.30;;;;;;;4.61;100.00;67290.97;4913473;29;20292;-79
2022/10/12 01:34:11;;;;;;;7.82;4.35;;;;;;;4.60;100.00;67287.19;4928620;29;20086;-78
2022/10/12 01:36:41;;;;;;;13.13;4.75;;;;;;;4.59;100.00;67290.78;4929516;29;20046;-78
2022/10/12 01:39:12;;;;;;;10.77;4.15;;;;;;;4.57;100.00;67283.25;4929740;29;20067;-76
2022/10/12 01:41:47;;;;;;;9.70;4.15;;;;;;;4.56;100.00;67285.31;4928863;29;20050;-79
2022/10/12 01:44:22;;;;;;;9.70;4.18;;;;;;;;;;4929404;29;20060;-78
2022/10/12 01:46:49;;;;;;;10.82;4.20;;;;;;;4.57;100.00;67283.81;4932292;29;20052;-77
2022/10/12 01:49:16;;;;;;;8.98;4.22;;;;;;;;;;4931453;29;20032;-77
2022/10/12 01:51:47;;;;;;;10.07;4.63;;;;;;;4.58;100.00;67287.03;4930494;29;20051;-78
2022/10/12 01:54:33;;;;;;;10.82;4.93;;;;;;;4.59;100.00;67286.06;4930443;29;20345;-78
2022/10/12 01:57:27;;;;;;;9.32;4.22;;;;;;;4.57;100.00;67283.81;4930065;29;20059;-79
2022/10/12 02:00:04;;;;;;;8.57;4.18;;;;;;;4.57;100.00;67283.81;4926322;29;20046;-79
2022/10/12 02:03:09;;;;;;;8.68;4.50;;;;;;;4.56;100.00;67285.31;4932074;29;20043;-79
2022/10/12 02:05:48;;;;;;;8.57;4.35;;;;;;;4.54;100.00;67280.41;4917337;29;20040;-79
2022/10/12 02:08:34;;;;;;;9.10;4.22;;;;;;;4.56;100.00;67287.41;4898480;29;20277;-77
2022/10/12 02:11:15;;;;;;;8.63;4.93;;;;;;;4.57;100.00;67283.81;4925922;29;20495;-79
2022/10/12 02:13:46;;;;;;;9.50;4.65;;;;;;;4.56;100.00;67284.75;4929829;29;20102;-78
2022/10/12 02:16:16;;;;;;;10.40;4.18;;;;;;;4.57;100.00;67283.81;4927301;29;20059;-76
2022/10/12 02:18:45;;;;;;;10.52;4.63;;;;;;;4.57;100.00;67286.44;4926845;29;21038;-78
2022/10/12 02:21:14;;;;;;;9.18;5.18;;;;;;;4.56;100.00;67282.69;4913625;29;20067;-77
2022/10/12 02:23:40;;;;;;;7.47;4.25;;;;;;;4.57;100.00;67288.50;4929706;29;20054;-77
2022/10/12 02:26:06;;;;;;;8.48;4.38;;;;;;;;;;4927786;29;20048;-79
2022/10/12 02:28:35;;;;;;;7.85;4.03;;;;;;;4.52;100.00;67281.38;4927447;29;20044;-77
2022/10/12 02:31:45;;;;;;;11.38;4.45;;;;;;;4.53;100.00;67281.94;4928961;29;20043;-77
2022/10/12 02:34:22;;;;;;;8.00;4.47;;;;;;;4.51;100.00;67277.03;4871227;29;20132;-78
2022/10/12 02:37:01;;;;;;;10.45;4.60;;;;;;;4.50;100.00;67276.47;4927461;29;20039;-77
2022/10/12 02:39:36;;;;;;;8.20;4.45;;;;;;;4.48;100.00;67276.84;4934788;29;20043;-79
2022/10/12 02:42:08;;;;;;;7.90;4.15;;;;;;;4.47;100.00;67272.53;4927136;29;20179;-78
2022/10/12 02:44:37;;;;;;;13.57;4.85;;;;;;;4.46;100.00;67277.22;4932642;29;20123;-78
2022/10/12 02:47:06;;;;;;;9.57;5.05;;;;;;;4.46;100.00;67274.03;4933470;29;20036;-79
2022/10/12 02:49:34;;;;;;;11.05;4.85;;;;;;;4.46;100.00;67274.03;4932530;29;20032;-77
2022/10/12 02:52:02;;;;;;;9.57;4.93;;;;;;;4.46;100.00;67274.03;4932893;29;20048;-79
2022/10/12 02:54:29;;;;;;;8.70;4.22;;;;;;;4.47;100.00;67273.09;4932095;29;20126;-80
2022/10/12 02:56:54;;;;;;;9.38;4.85;;;;;;;4.49;100.00;67277.44;4933746;29;20051;-77
2022/10/12 02:59:20;;;;;;;12.80;5.43;;;;;;;4.50;100.00;67276.47;4932695;29;20230;-78
2022/10/12 03:01:45;;;;;;;8.68;5.10;;;;;;;4.51;100.00;67277.59;4932549;29;20044;-78
2022/10/12 03:04:10;;;;;;;9.10;5.32;;;;;;;4.51;100.00;67279.66;4933843;29;20491;-76
2022/10/12 03:06:36;;;;;;;8.73;5.43;;;;;;;4.52;100.00;67283.44;4915267;29;20079;-79
2022/10/12 03:09:03;;;;;;;11.93;5.35;;;;;;;4.52;100.00;67283.44;4931502;29;20052;-76
2022/10/12 03:11:30;;;;;;;8.85;4.82;;;;;;;4.51;100.00;67279.66;4913652;29;20407;-75
2022/10/12 03:13:56;;;;;;;11.23;5.38;;;;;;;4.50;100.00;67278.53;4926520;29;20046;-78
2022/10/12 03:16:22;;;;;;;10.93;4.85;;;;;;;4.50;100.00;67278.53;4928189;29;20044;-76
2022/10/12 03:18:47;;;;;;;12.40;5.50;;;;;;;;;;4931607;29;20139;-78
2022/10/12 03:21:13;;;;;;;11.13;5.35;;;;;;;4.48;100.00;67273.66;4931419;29;20134;-78
2022/10/12 03:23:38;;;;;;;9.55;4.90;;;;;;;4.47;100.00;67277.78;4931305;29;20082;-77
2022/10/12 03:26:04;;;;;;;12.25;5.10;;;;;;;4.46;100.00;67271.97;4931869;29;20048;-77
2022/10/12 03:28:30;;;;;;;11.32;5.32;;;;;;;4.45;100.00;67270.25;4926424;29;20908;-76
2022/10/12 03:30:56;;;;;;;9.27;5.43;;;;;;;4.44;100.00;67269.13;4931594;29;20487;-76
2022/10/12 03:33:21;;;;;;;9.00;5.70;;;;;;;4.44;100.00;67269.69;4931754;29;20040;-78
2022/10/12 03:35:47;;;;;;;9.80;5.22;;;;;;;4.45;100.00;67276.09;4932095;29;20096;-77
2022/10/12 03:38:14;;;;;;;8.75;5.53;;;;;;;4.46;100.00;67271.38;4931186;29;20135;-78
2022/10/12 03:40:39;;;;;;;13.85;6.53;;;;;;;4.45;100.00;67270.25;4929854;29;20059;-77
2022/10/12 03:43:04;;;;;;;10.55;5.85;;;;;;;4.50;100.00;67275.91;4931845;29;20459;-78
2022/10/12 03:45:30;;;;;;;10.93;5.55;;;;;;;4.49;100.00;67274.78;4931919;29;20050;-79
2022/10/12 03:47:55;;;;;;;12.18;5.38;;;;;;;4.49;100.00;67280.63;4930964;29;20046;-78
2022/10/12 03:50:21;;;;;;;9.32;6.13;;;;;;;4.50;100.00;67275.91;4930197;29;20431;-77
2022/10/12 03:52:46;;;;;;;10.63;5.72;;;;;;;4.48;100.00;67284.75;4931730;29;20530;-76
2022/10/12 03:55:12;;;;;;;12.18;6.30;;;;;;;4.47;100.00;67273.09;4930076;29;20242;-78
2022/10/12 03:57:38;;;;;;;9.88;5.88;;;;;;;4.45;100.00;67270.81;4930885;29;20039;-79
2022/10/12 04:00:04;;;;;;;10.68;6.05;;;;;;;4.44;100.00;67271.78;4929957;29;20102;-77
2022/10/12 04:02:29;;;;;;;13.75;6.47;;;;;;;;;;4929196;29;20122;-79
2022/10/12 04:04:55;;;;;;;11.15;5.80;;;;;;;4.44;100.00;67272.34;4930743;29;20563;-77
2022/10/12 04:07:20;;;;;;;11.40;6.22;;;;;;;4.44;100.00;67271.78;4930947;29;20054;-78
2022/10/12 04:09:46;;;;;;;12.07;6.25;;;;;;;4.43;100.00;67268.59;4929062;29;20123;-78
2022/10/12 04:12:11;;;;;;;11.18;6.05;;;;;;;4.42;100.00;67266.88;4931215;29;20110;-76
2022/10/12 04:14:37;;;;;;;8.20;5.85;;;;;;;4.43;100.00;67273.28;4931435;29;20491;-78
2022/10/12 04:17:03;;;;;;;8.90;5.20;;;;;;;4.40;100.00;67270.47;4930572;29;20126;-78
2022/10/12 04:19:28;;;;;;;14.32;5.90;;;;;;;4.38;100.00;67262.94;4930630;29;20514;-77
2022/10/12 04:21:53;;;;;;;12.13;5.90;;;;;;;4.37;100.00;67267.06;4929097;29;20051;-76
2022/10/12 04:24:19;;;;;;;10.30;5.90;;;;;;;4.36;100.00;67260.66;4928831;29;20079;-79
2022/10/12 04:26:44;;;;;;;9.60;5.38;;;;;;;4.32;100.00;67255.59;4930532;29;20127;-77
2022/10/12 04:29:11;;;;;;;15.18;5.60;;;;;;;4.33;100.00;67262.56;4930704;29;20043;-78
2022/10/12 04:31:37;;;;;;;9.60;5.47;;;;;;;4.30;100.00;67254.47;4930216;29;20521;-78
2022/10/12 04:34:02;;;;;;;12.43;5.55;;;;;;;4.25;100.00;67248.25;4931393;29;20052;-77
2022/10/12 04:36:28;;;;;;;10.63;6.10;;;;;;;4.22;100.00;67247.50;4927659;29;20040;-77
2022/10/12 04:38:53;;;;;;;10.93;5.70;;;;;;;4.20;100.00;67242.59;4932183;29;20043;-77
2022/10/12 04:41:19;;;;;;;8.90;5.82;;;;;;;4.18;100.00;67243.56;4931179;29;20042;-79
2022/10/12 04:43:44;;;;;;;12.70;5.65;;;;;;;4.17;100.00;67241.84;4929338;29;20046;-77
2022/10/12 04:46:10;;;;;;;12.38;5.47;;;;;;;4.14;100.00;67235.84;4932008;29;20572;-76
2022/10/12 04:48:36;;;;;;;12.40;6.10;;;;;;;4.12;100.00;67234.16;4931204;29;20570;-80
2022/10/12 04:51:01;;;;;;;9.73;6.03;;;;;;;4.08;100.00;67229.63;4929340;29;20120;-77
2022/10/12 04:53:26;;;;;;;13.20;5.97;;;;;;;4.08;100.00;67232.25;4931287;29;20499;-76
2022/10/12 04:55:52;;;;;;;10.07;5.90;;;;;;;4.07;100.00;67228.50;4930369;29;20138;-78
2022/10/12 04:58:17;;;;;;;10.30;6.13;;;;;;;4.03;100.00;67224.00;4929483;29;20674;-79
2022/10/12 05:00:42;;;;;;;11.88;6.13;;;;;;;4.02;100.00;67225.50;4930065;29;20128;-78
2022/10/12 05:03:08;;;;;;;12.18;5.28;;;;;;;;;;4931653;29;20483;-76
2022/10/12 05:05:34;;;;;;;12.25;5.65;;;;;;;4.00;100.00;67220.59;4931614;29;20417;-76
2022/10/12 05:08:00;;;;;;;7.88;5.35;;;;;;;3.94;100.00;67216.47;4929769;29;29213;-77
2022/10/12 05:10:26;;;;;;;8.07;5.80;;;;;;;3.93;100.00;67215.34;4931733;29;20054;-79
2022/10/12 05:12:51;;;;;;;7.55;5.30;;;;;;;;;;4930269;29;20075;-77
2022/10/12 05:15:16;;;;;;;11.40;6.03;;;;;;;3.88;100.00;67209.69;4932073;29;20186;-78
2022/10/12 05:17:42;;;;;;;10.57;5.43;;;;;;;3.84;100.00;67203.69;4929397;29;20051;-79
2022/10/12 05:20:08;;;;;;;11.50;5.82;;;;;;;3.81;100.00;67200.28;4931152;29;20076;-75
2022/10/12 05:22:33;;;;;;;10.38;5.43;;;;;;;3.82;100.00;67200.84;4929520;29;20043;-79
2022/10/12 05:24:59;;;;;;;12.55;6.15;;;;;;;3.79;100.00;67203.28;4931108;29;20062;-79
2022/10/12 05:27:24;;;;;;;11.27;5.57;;;;;;;3.76;100.00;67194.66;4930432;29;20430;-80
2022/10/12 05:29:49;;;;;;;12.27;5.88;;;;;;;3.74;100.00;67195.03;4931729;29;20130;-77
2022/10/12 05:32:15;;;;;;;10.55;5.68;;;;;;;;;;4931515;29;20044;-79
2022/10/12 05:34:41;;;;;;;10.65;6.22;;;;;;;3.70;100.00;67193.16;4926874;29;20529;-77
2022/10/12 05:37:06;;;;;;;11.35;5.70;;;;;;;;;;4930185;29;20044;-79
2022/10/12 05:39:32;;;;;;;8.95;5.65;;;;;;;3.67;100.00;67189.19;4930443;29;20280;-78
2022/10/12 05:41:57;;;;;;;9.18;4.90;;;;;;;3.64;100.00;67183.19;4930167;29;20669;-77
2022/10/12 05:44:23;;;;;;;10.20;5.68;;;;;;;3.59;100.00;67176.03;4931358;29;20479;-78
2022/10/12 05:46:48;;;;;;;10.88;5.60;;;;;;;3.59;100.00;67175.47;4929316;29;20111;-79
2022/10/12 05:49:13;;;;;;;7.82;5.53;;;;;;;3.57;100.00;67176.41;4929534;29;20143;-80
2022/10/12 05:51:39;;;;;;;8.90;4.78;;;;;;;3.57;100.00;67175.84;4930321;29;20507;-78
2022/10/12 05:54:04;;;;;;;11.57;6.07;;;;;;;3.55;100.00;67176.22;4931213;29;20043;-78
2022/10/12 05:56:30;;;;;;;11.75;6.68;;;;;;;3.56;100.00;67172.09;4929817;29;20047;-77
2022/10/12 05:58:55;;;;;;;9.60;5.40;;;;;;;3.59;100.00;67178.09;4929544;29;20047;-77
2022/10/12 06:01:21;;;;;;;11.60;5.72;;;;;;;3.54;100.00;67170.41;4930622;29;20052;-78
2022/10/12 06:03:46;;;;;;;11.95;6.10;;;;;;;3.54;100.00;67175.09;4912368;29;20103;-78
2022/10/12 06:06:11;;;;;;;14.43;6.13;;;;;;;3.52;100.00;67172.84;4931137;29;20046;-79
2022/10/12 06:08:37;;;;;;;11.10;5.85;;;;;;;3.50;100.00;67170.59;4930043;29;20055;-77
2022/10/12 06:11:03;;;;;;;12.73;5.72;;;;;;;3.49;100.00;67164.19;4931512;29;20115;-79
2022/10/12 06:13:28;;;;;;;12.60;6.03;;;;;;;3.47;100.00;67165.13;4934668;29;20070;-79
2022/10/12 06:15:53;;;;;;;12.13;5.53;;;;;;;3.46;100.00;67164.00;4915931;29;21587;-79
2022/10/12 06:18:19;;;;;;;10.82;5.50;;;;;;;3.45;100.00;67162.31;4934550;29;20103;-76
2022/10/12 06:20:51;;;;;;;10.00;5.60;;;;;;;3.45;100.00;67167.56;4927184;29;20043;-80
2022/10/12 06:23:17;;;;;;;11.80;5.13;;;;;;;3.44;100.00;67163.81;4934971;29;20134;-76
2022/10/12 06:25:45;;;;;;;11.82;5.85;;;;;;;3.43;100.00;67162.69;4932335;29;20097;-80
2022/10/12 06:28:11;;;;;;;10.68;5.53;;;;;;;3.44;100.00;67161.19;4934627;29;20459;-79
2022/10/12 06:30:36;;;;;;;9.27;5.35;;;;;;;3.42;100.00;67159.50;4935014;29;20036;-79
2022/10/12 06:33:02;;;;;;;10.50;5.13;;;;;;;3.43;100.00;67158.00;4934356;29;21469;-77
2022/10/12 06:35:27;;;;;;;11.00;5.38;;;;;;;3.45;100.00;67162.88;4936410;29;20040;-79
2022/10/12 06:37:53;;;;;;;9.52;5.70;;;;;;;3.49;100.00;67166.84;4934892;29;20044;-80
2022/10/12 06:40:18;;;;;;;12.48;5.85;;;;;;;3.48;100.00;67163.63;4936006;29;20080;-77
2022/10/12 06:42:44;;;;;;;14.85;6.05;;;;;;;3.51;100.00;67166.44;4934269;29;20047;-76
2022/10/12 06:45:10;;;;;;;11.32;5.55;;;;;;;3.55;100.00;67173.59;4931597;29;20051;-80
2022/10/12 06:47:35;;;;;;;13.20;6.22;;;;;;;3.58;100.00;67177.53;4933089;29;20047;-75
2022/10/12 06:50:01;;;;;;;11.23;6.05;;;;;;;3.63;100.00;67182.06;4930445;29;20055;-79
2022/10/12 06:52:26;;;;;;;11.48;5.97;;;;;;;3.67;100.00;67183.94;4927896;29;20124;-81
2022/10/12 06:54:51;;;;;;;13.73;6.20;;;;;;;;;;4930874;29;20421;-79
2022/10/12 06:57:17;;;;;;;13.98;6.53;;;;;;;3.82;100.00;67206.13;4931898;29;20392;-82
2022/10/12 06:59:42;;;;;;;10.18;5.88;;;;;;;;;;4933322;29;20081;-79
2022/10/12 07:02:10;;;;;;;9.07;5.80;;;;;;;3.95;100.00;67214.97;4933527;29;20150;-80
2022/10/12 07:04:36;;;;;;;10.45;5.68;;;;;;;4.00;100.00;67223.22;4928655;29;20392;-79
2022/10/12 07:07:01;;;;;;;13.98;6.72;;;;;;;4.05;100.00;67226.25;4925165;29;20059;-79
2022/10/12 07:09:27;;;;;;;12.48;6.25;;;;;;;4.12;100.00;67239.41;4924758;29;20048;-80
2022/10/12 07:11:53;;;;;;;11.02;6.18;;;;;;;4.17;100.00;67239.81;4922761;29;20072;-80
2022/10/12 07:14:18;;;;;;;14.43;6.93;;;;;;;4.22;100.00;67244.88;4930366;29;20134;-80
2022/10/12 07:16:44;;;;;;;16.65;6.97;;;;;;;4.30;100.00;67256.53;4931526;29;20039;-80
2022/10/12 07:19:09;;;;;;;15.73;7.15;;;;;;;4.38;100.00;67265.00;4928783;29;20052;-80
2022/10/12 07:21:34;;;;;;;17.13;8.98;;;;;;;4.51;100.00;67279.66;4931126;29;20051;-79
2022/10/12 07:24:00;;;;;;;22.23;9.35;;;;;;;4.65;100.00;67292.84;4923475;29;20058;-80
2022/10/12 07:26:25;;;;;;;14.25;9.52;;;;;;;4.82;100.00;67313.56;4928472;29;20047;-82
2022/10/12 07:28:50;;;;;;;17.30;10.00;;;;;;;4.99;100.00;67332.75;4932314;29;20538;-80
2022/10/12 07:31:16;;;;;;;17.05;10.13;;;;;;;;;;4930616;29;20051;-80
2022/10/12 07:33:41;;;;;;;15.43;11.25;;;;;;;5.33;100.00;67367.94;4929965;29;20527;-80
2022/10/12 07:36:07;;;;;;;18.75;10.88;;;;;;;5.55;100.00;67394.91;4909792;29;20039;-81
2022/10/12 07:38:32;;;;;;;19.73;11.55;;;;;;;;;;4929436;29;20094;-79
2022/10/12 07:41:02;;;;;;;21.85;12.27;;;;;;;5.91;100.00;67431.81;4912801;29;20111;-79
2022/10/12 07:43:27;;;;;;;21.88;12.00;;;;;;;;;;4909014;29;20067;-77
2022/10/12 07:45:53;;;;;;;19.88;11.73;;;;;;;6.26;100.00;67470.25;4926258;29;20068;-78
2022/10/12 07:48:19;;;;;;;25.80;12.18;;;;;;;6.38;100.00;67485.91;4929543;29;20040;-77
2022/10/12 07:50:44;;;;;;;22.67;11.93;;;;;;;;;;4925804;29;20051;-78
2022/10/12 07:53:09;;;;;;;21.10;12.57;;;;;;;6.63;100.00;67510.97;4930021;29;20495;-80
2022/10/12 07:55:35;;;;;;;20.15;12.52;;;;;;;6.76;100.00;67528.91;4929139;29;20046;-78
2022/10/12 07:58:00;;;;;;;22.90;11.32;;;;;;;6.88;100.00;67533.97;4925993;29;20051;-78
2022/10/12 08:00:27;;;;;;;18.23;10.57;;;;;;;7.01;100.00;67556.59;4929249;29;20047;-77
2022/10/12 08:02:53;;;;;;;18.83;10.30;;;;;;;7.09;100.00;67564.53;4929943;29;20067;-78
2022/10/12 08:05:22;;;;;;;17.75;11.05;;;;;;;7.19;100.00;67567.88;4924447;29;20173;-78
2022/10/12 08:07:51;;;;;;;19.63;10.23;;;;;;;7.28;100.00;67583.38;4930334;29;20091;-80
2022/10/12 08:10:18;;;;;;;19.60;10.38;;;;;;;7.37;100.00;67596.22;4910872;29;20381;-78
2022/10/12 08:12:44;;;;;;;16.40;9.88;;;;;;;;;;4929509;29;20411;-77
2022/10/12 08:15:09;;;;;;;14.90;9.75;;;;;;;;;;4934758;29;20053;-79
2022/10/12 08:17:34;;;;;;;16.88;10.15;;;;;;;7.62;100.00;67620.72;4930625;29;20047;-78
2022/10/12 08:20:00;;;;;;;14.50;10.02;;;;;;;7.68;100.00;67627.50;4934157;29;20114;-77
2022/10/12 08:22:25;;;;;;;16.25;10.32;;;;;;;7.75;100.00;67635.44;4930887;29;20090;-78
2022/10/12 08:24:51;;;;;;;16.10;9.80;;;;;;;7.81;100.00;67642.25;4929402;29;20459;-78
2022/10/12 08:27:16;;;;;;;18.45;9.80;;;;;;;7.88;100.00;67650.19;4929776;29;20160;-78
2022/10/12 08:29:41;;;;;;;17.95;10.32;;;;;;;7.93;100.00;67654.69;4929369;29;20059;-79
2022/10/12 08:32:06;;;;;;;18.35;10.13;;;;;;;;;;4929308;29;20537;-77
2022/10/12 08:34:32;;;;;;;21.90;11.00;;;;;;;8.11;100.00;67677.72;4927985;29;20450;-78
2022/10/12 08:37:00;;;;;;;19.55;10.10;;;;;;;8.16;100.00;67682.81;4926832;29;20053;-81
2022/10/12 08:39:26;;;;;;;17.17;9.90;;;;;;;8.26;100.00;67694.16;4930578;29;20043;-81
2022/10/12 08:42:05;;;;;;;18.15;9.35;;;;;;;8.35;100.00;67696.97;4929331;29;20576;-78
2022/10/12 08:44:30;;;;;;;18.13;10.05;;;;;;;;;;4929191;29;20055;-78
2022/10/12 08:46:58;;;;;;;19.17;9.70;;;;;;;;;;4925610;29;20067;-78
2022/10/12 08:49:25;;;;;;;18.35;9.15;;;;;;;;;;4926967;29;20869;-78
2022/10/12 08:51:57;;;;;;;17.55;8.68;;;;;;;8.79;100.00;67745.13;4930357;29;20048;-78
2022/10/12 08:54:28;;;;;;;13.77;8.27;;;;;;;8.84;100.00;67755.53;4918230;29;20070;-78
2022/10/12 08:56:54;;;;;;;18.67;8.70;;;;;;;8.95;100.00;67768.00;4925035;29;20044;-77
2022/10/12 08:59:21;;;;;;;15.90;8.80;;;;;;;9.09;100.00;67783.88;4925325;29;20056;-77
2022/10/12 09:02:12;;;;;;;18.63;8.73;;;;;;;9.18;100.00;67794.06;4926264;29;20051;-78
2022/10/12 09:04:58;;;;;;;15.23;8.32;;;;;;;9.28;98.44;67804.81;4911950;29;20049;-77
2022/10/12 09:07:27;;;;;;;19.50;8.35;;;;;;;;;;4890399;29;20099;-79
2022/10/12 09:09:58;;;;;;;15.02;7.55;;;;;;;;;;4927052;29;20046;-79
2022/10/12 09:12:29;;;;;;;15.13;7.97;;;;;;;9.52;96.15;67836.22;4930986;29;20075;-79
2022/10/12 09:15:00;;;;;;;12.65;6.80;;;;;;;9.67;96.55;67851.16;4926427;29;20249;-79
2022/10/12 09:17:31;;;;;;;13.35;6.78;;;;;;;9.76;95.64;67852.25;4931591;29;20074;-79
2022/10/12 09:20:15;;;;;;;13.10;6.93;;;;;;;9.89;95.36;67866.97;4925749;29;20109;-79
2022/10/12 09:22:46;;;;;;;12.52;6.40;;;;;;;10.06;95.26;67891.00;4924638;29;20079;-83
2022/10/12 09:25:13;;;;;;;14.02;6.53;;;;;;;10.17;94.60;67904.06;4930065;29;20047;-82
2022/10/12 09:27:39;;;;;;;14.30;6.50;;;;;;;;;;4929293;29;20052;-79
2022/10/12 09:30:05;;;;;;;9.98;5.45;;;;;;;;;;4926833;29;20550;-79
2022/10/12 09:32:36;;;;;;;14.75;5.90;;;;;;;10.52;91.51;67934.66;4926746;29;20056;-79
2022/10/12 09:35:04;;;;;;;12.20;5.70;;;;;;;10.59;91.20;67950.59;4927375;29;20071;-82
2022/10/12 09:37:31;;;;;;;15.05;5.88;;;;;;;10.69;90.42;67960.81;4927297;29;20069;-79
2022/10/12 09:39:58;;;;;;;10.93;5.63;;;;;;;10.80;90.11;67965.88;4928308;29;20048;-78
2022/10/12 09:42:24;;;;;;;10.40;5.03;;;;;;;;;;4928435;29;20063;-78
2022/10/12 09:44:52;;;;;;;18.20;5.30;;;;;;;;;;4930213;29;20499;-78
2022/10/12 09:47:22;;;;;;;15.07;5.50;;;;;;;11.07;87.02;67998.63;4927912;29;20075;-80
2022/10/12 09:49:52;;;;;;;12.55;4.80;;;;;;;11.20;86.17;68017.56;4927424;29;20040;-78
2022/10/12 09:52:23;;;;;;;10.77;4.30;;;;;;;11.23;84.34;68020.97;4921890;29;20530;-78
2022/10/12 09:54:53;;;;;;;11.63;4.25;;;;;;;;;;4928133;29;20071;-80
2022/10/12 09:57:21;;;;;;;11.55;4.15;;;;;;;11.47;84.87;68042.91;4928560;29;20082;-79
2022/10/12 09:59:48;;;;;;;12.00;3.90;;;;;;;11.61;83.75;68057.66;4928164;29;20131;-80
2022/10/12 10:02:16;;;;;;;12.15;4.70;;;;;;;11.67;82.70;68064.47;4930214;29;20043;-80
2022/10/12 10:04:43;;;;;;;9.10;4.30;;;;;;;11.71;81.74;68069.59;4920403;29;20736;-79
2022/10/12 10:07:17;;;;;;;13.48;4.15;;;;;;;;;;4928414;29;20052;-81
2022/10/12 10:09:43;;;;;;;11.43;4.53;;;;;;;11.94;83.62;68100.50;4930907;29;21917;-80
2022/10/12 10:12:23;;;;;;;8.48;4.70;;;;;;;12.07;83.10;68108.81;4923607;29;20056;-80
2022/10/12 10:14:50;;;;;;;8.88;4.15;;;;;;;12.21;82.33;68129.47;4919314;29;20047;-79
2022/10/12 10:17:16;;;;;;;8.88;4.15;;;;;;;;;;4929087;29;20319;-79
2022/10/12 10:19:49;;;;;;;10.80;4.50;;;;;;;;;;4926825;29;20048;-80
2022/10/12 10:22:15;;;;;;;8.02;4.28;;;;;;;12.30;79.30;68134.38;4922901;29;20052;-79
2022/10/12 10:24:40;;;;;;;13.77;4.70;;;;;;;12.36;79.31;68141.75;4927884;29;20059;-79
2022/10/12 10:27:06;;;;;;;11.25;4.93;;;;;;;;;;4929631;29;20503;-81
2022/10/12 10:29:31;;;;;;;8.95;4.20;;;;;;;12.50;79.74;68157.09;4924216;29;20050;-78
2022/10/12 10:32:11;;;;;;;14.68;4.45;;;;;;;;;;4928646;29;20044;-82
2022/10/12 10:34:37;;;;;;;12.52;5.10;;;;;;;12.56;77.33;68169.25;4924979;29;20195;-81
2022/10/12 10:37:04;;;;;;;11.32;4.57;;;;;;;12.59;76.72;68167.31;4909901;29;20086;-81
2022/10/12 10:39:45;;;;;;;10.10;4.55;;;;;;;12.70;78.04;68179.25;4922710;29;20047;-80
2022/10/12 10:42:19;;;;;;;14.07;4.63;;;;;;;12.74;77.04;68183.81;4930012;29;20048;-80
2022/10/12 10:44:49;;;;;;;10.52;4.95;;;;;;;12.81;76.89;68189.09;4924827;29;20123;-82
2022/10/12 10:47:15;;;;;;;10.95;5.28;;;;;;;;;;4929077;29;20481;-81
2022/10/12 10:49:56;;;;;;;13.32;4.90;;;;;;;12.99;77.90;68217.00;4924745;29;20111;-79
2022/10/12 10:52:21;;;;;;;11.18;4.63;;;;;;;;;;4911411;29;20075;-80
2022/10/12 10:54:48;;;;;;;9.48;4.65;;;;;;;13.19;76.57;68233.84;4922987;29;20078;-80
2022/10/12 10:57:19;;;;;;;12.65;5.10;;;;;;;13.24;75.61;68244.88;4928210;29;20074;-80
2022/10/12 10:59:56;;;;;;;10.48;4.78;;;;;;;13.31;74.91;68252.84;4930959;29;20114;-80
2022/10/12 11:02:35;;;;;;;10.73;4.68;;;;;;;13.37;75.55;68253.19;4913899;29;20131;-79
2022/10/12 11:05:04;;;;;;;13.80;4.32;;;;;;;;;;4925031;29;20071;-79
2022/10/12 11:07:38;;;;;;;10.13;4.47;;;;;;;13.46;74.53;68268.75;4932191;29;20055;-80
2022/10/12 11:10:29;;;;;;;12.35;4.43;;;;;;;13.57;74.50;68280.72;4927418;29;20036;-80
2022/10/12 11:13:10;;;;;;;11.63;3.10;;;;;;;13.61;72.04;68279.91;4930002;29;20048;-80
2022/10/12 11:15:49;;;;;;;8.25;3.05;;;;;;;13.68;71.16;68288.44;4929561;29;20036;-78
2022/10/12 11:18:24;;;;;;;10.30;3.83;;;;;;;13.77;71.12;68298.69;4931256;29;20463;-79
2022/10/12 11:21:10;;;;;;;9.13;3.28;;;;;;;13.86;71.59;68307.78;4929166;29;20078;-79
2022/10/12 11:23:56;;;;;;;10.85;3.40;;;;;;;13.95;70.29;68323.38;4921650;29;20122;-79
2022/10/12 11:26:24;;;;;;;7.57;2.92;;;;;;;;;;4895543;29;20048;-78
2022/10/12 11:28:51;;;;;;;9.60;3.30;;;;;;;14.13;70.25;68337.94;4928336;29;20044;-79
2022/10/12 11:31:35;;;;;;;11.85;2.90;;;;;;;14.28;70.31;68354.44;4928491;29;20191;-78
2022/10/12 11:34:04;;;;;;;8.13;2.90;;;;;;;14.42;69.69;68367.72;4930938;29;20187;-78
2022/10/12 11:36:31;;;;;;;;;;;;;;;14.49;68.97;68383.69;4931643;29;20460;-79
2022/10/12 11:39:07;;;;;;;10.98;2.88;;;;;;;;;;4928884;29;19925;-79
2022/10/12 11:41:37;;;;;;;6.70;2.40;;;;;;;14.52;65.43;68381.78;4933591;29;20048;-78
2022/10/12 11:44:14;;;;;;;9.13;2.63;;;;;;;14.60;65.14;68388.22;4924753;29;20103;-77
2022/10/12 11:46:52;;;;;;;6.20;2.22;;;;;;;14.70;64.61;68401.13;4928984;29;20052;-79
2022/10/12 11:49:33;;;;;;;7.32;2.25;;;;;;;14.73;62.83;68405.13;4921222;29;20084;-80
2022/10/12 11:52:04;;;;;;;10.82;2.67;;;;;;;14.82;63.95;68414.81;4925771;29;20039;-79
2022/10/12 11:54:56;;;;;;;10.05;2.65;;;;;;;14.94;64.61;68427.91;4931275;29;20038;-78
2022/10/12 11:57:27;;;;;;;7.32;2.90;;;;;;;15.07;61.84;68440.00;4913292;29;20050;-81
2022/10/12 12:00:11;;;;;;;6.97;2.25;;;;;;;15.20;61.00;68457.50;4911244;29;20040;-77
2022/10/12 12:02:38;;;;;;;9.68;1.95;;;;;;;;;;4934752;29;20086;-78
2022/10/12 12:05:09;;;;;;;9.18;2.10;;;;;;;15.36;60.17;68475.16;4928278;29;20503;-78
2022/10/12 12:07:52;;;;;;;6.88;1.80;;;;;;;15.49;61.55;68489.97;4907992;29;20044;-80
2022/10/12 12:10:24;;;;;;;8.60;2.47;;;;;;;15.64;61.00;68503.81;4908632;29;20048;-77
2022/10/12 12:13:16;;;;;;;9.88;2.30;;;;;;;;;;4922977;29;20044;-77
2022/10/12 12:16:02;;;;;;;9.20;2.40;;;;;;;;;;4927923;29;20066;-78
2022/10/12 12:18:29;;;;;;;8.35;1.75;;;;;;;15.89;58.17;68533.88;4881048;29;20048;-83
2022/10/12 12:21:06;;;;;;;7.20;2.13;;;;;;;15.99;58.63;68543.13;4929910;29;20051;-77
2022/10/12 12:23:37;;;;;;;9.82;2.53;;;;;;;;;;4931768;29;20117;-81
2022/10/12 12:26:09;;;;;;;6.93;1.92;;;;;;;16.15;57.67;68562.94;4937832;29;20269;-78
2022/10/12 12:28:40;;;;;;;8.85;2.42;;;;;;;16.27;59.06;68573.91;4931898;29;20050;-78
2022/10/12 12:31:25;;;;;;;7.22;2.22;;;;;;;16.28;57.33;68575.03;4929747;29;20206;-81
2022/10/12 12:34:11;;;;;;;9.98;1.90;;;;;;;16.37;55.58;68582.63;4927110;29;20051;-76
2022/10/12 12:36:45;;;;;;;6.25;1.75;;;;;;;16.44;54.88;68595.41;4910864;29;20120;-79
2022/10/12 12:39:29;;;;;;;5.80;1.67;;;;;;;16.43;54.23;68594.84;4912357;29;20047;-81
2022/10/12 12:41:57;;;;;;;8.52;1.98;;;;;;;16.57;54.11;68609.66;4929535;29;20099;-78
2022/10/12 12:44:43;;;;;;;8.27;2.13;;;;;;;16.62;52.97;68615.94;4933641;29;20052;-79
2022/10/12 12:47:08;;;;;;;10.93;2.33;;;;;;;16.63;53.21;68611.13;4928936;29;20107;-81
2022/10/12 12:49:37;;;;;;;12.07;1.95;;;;;;;16.53;53.74;68605.09;4931508;29;20047;-79
2022/10/12 12:52:14;;;;;;;8.73;2.45;;;;;;;;;;4930265;29;20055;-78
2022/10/12 12:55:01;;;;;;;7.82;2.40;;;;;;;16.45;55.07;68594.44;4921646;29;20066;-79